createdAt,value
2023-05-15T00:02:13.248Z,8.11
2023-05-15T00:04:40.832Z,8.02
2023-05-15T00:07:07.844Z,7.75
2023-05-15T00:09:34.682Z,7.76
2023-05-15T00:12:01.574Z,7.82
2023-05-15T00:14:28.394Z,7.77
2023-05-15T00:16:55.910Z,7.72
2023-05-15T00:19:22.748Z,7.68
2023-05-15T00:21:49.617Z,7.69
2023-05-15T00:24:16.412Z,7.69
2023-05-15T00:26:43.703Z,7.76
2023-05-15T00:29:10.663Z,7.81
2023-05-15T00:31:37.549Z,7.90
2023-05-15T00:34:04.406Z,7.87
2023-05-15T00:36:31.455Z,7.81
2023-05-15T00:38:58.673Z,7.76
2023-05-15T00:41:28.876Z,7.48
2023-05-15T00:43:56.118Z,7.56
2023-05-15T00:46:24.966Z,7.57
2023-05-15T00:48:52.288Z,7.58
2023-05-15T00:51:19.155Z,7.50
2023-05-15T00:53:46.105Z,7.57
2023-05-15T00:56:13.081Z,7.53
2023-05-15T00:58:40.308Z,7.49
2023-05-15T01:01:08.505Z,7.49
2023-05-15T01:03:36.002Z,7.46
2023-05-15T01:06:03.086Z,7.35
2023-05-15T01:08:48.272Z,7.33
2023-05-15T01:11:17.069Z,7.45
2023-05-15T01:13:44.697Z,7.50
2023-05-15T01:16:11.999Z,7.36
2023-05-15T01:18:39.036Z,7.22
2023-05-15T01:21:35.124Z,7.23
2023-05-15T01:24:23.636Z,7.23
2023-05-15T01:27:14.276Z,7.18
2023-05-15T01:30:00.952Z,7.14
2023-05-15T01:32:48.203Z,7.15
2023-05-15T01:35:34.142Z,7.13
2023-05-15T01:38:33.729Z,7.09
2023-05-15T01:41:11.839Z,6.95
2023-05-15T01:43:42.930Z,6.92
2023-05-15T01:46:16.191Z,6.93
2023-05-15T01:48:45.561Z,6.88
2023-05-15T01:51:15.080Z,6.85
2023-05-15T01:53:43.990Z,6.88
2023-05-15T01:56:14.394Z,6.77
2023-05-15T01:58:43.090Z,6.65
2023-05-15T02:01:11.068Z,6.64
2023-05-15T02:03:38.433Z,6.68
2023-05-15T02:06:08.942Z,6.65
2023-05-15T02:08:36.983Z,6.59
2023-05-15T02:11:04.163Z,6.45
2023-05-15T02:13:32.324Z,6.37
2023-05-15T02:15:59.346Z,6.38
2023-05-15T02:18:26.304Z,6.29
2023-05-15T02:20:53.276Z,6.20
2023-05-15T02:23:21.994Z,6.42
2023-05-15T02:26:28.562Z,6.41
2023-05-15T02:29:11.398Z,6.35
2023-05-15T02:31:58.448Z,6.50
2023-05-15T02:35:00.473Z,6.56
2023-05-15T02:37:35.833Z,6.51
2023-05-15T02:40:07.165Z,6.45
2023-05-15T02:42:36.556Z,6.47
2023-05-15T02:45:04.765Z,6.41
2023-05-15T02:47:34.418Z,6.53
2023-05-15T02:50:03.072Z,6.65
2023-05-15T02:52:29.990Z,6.59
2023-05-15T02:54:56.805Z,6.52
2023-05-15T02:57:23.641Z,6.59
2023-05-15T02:59:50.514Z,6.66
2023-05-15T03:02:17.410Z,6.75
2023-05-15T03:04:44.340Z,6.79
2023-05-15T03:07:11.228Z,6.86
2023-05-15T03:09:38.046Z,6.81
2023-05-15T03:12:05.115Z,6.74
2023-05-15T03:14:32.030Z,6.64
2023-05-15T03:17:00.250Z,6.75
2023-05-15T03:19:27.220Z,6.71
2023-05-15T03:21:54.032Z,6.66
2023-05-15T03:24:21.577Z,6.70
2023-05-15T03:26:48.412Z,6.71
2023-05-15T03:29:15.230Z,6.66
2023-05-15T03:31:42.101Z,6.72
2023-05-15T03:34:08.938Z,6.61
2023-05-15T03:36:35.759Z,6.72
2023-05-15T03:39:02.558Z,6.73
2023-05-15T03:41:29.358Z,6.70
2023-05-15T03:43:56.205Z,6.75
2023-05-15T03:46:23.091Z,6.79
2023-05-15T03:48:49.977Z,6.82
2023-05-15T03:51:16.817Z,6.90
2023-05-15T03:53:43.658Z,6.96
2023-05-15T03:56:10.547Z,6.95
2023-05-15T03:58:37.387Z,6.99
2023-05-15T04:01:04.277Z,7.04
2023-05-15T04:03:31.129Z,7.00
2023-05-15T04:05:57.978Z,7.04
2023-05-15T04:08:24.975Z,7.11
2023-05-15T04:10:52.421Z,7.11
2023-05-15T04:13:19.248Z,7.10
2023-05-15T04:15:46.730Z,7.22
2023-05-15T04:18:13.554Z,7.20
2023-05-15T04:20:40.413Z,7.19
2023-05-15T04:23:07.292Z,7.26
2023-05-15T04:25:34.239Z,7.28
2023-05-15T04:28:01.397Z,7.24
2023-05-15T04:30:28.211Z,7.34
2023-05-15T04:32:55.068Z,7.36
2023-05-15T04:35:22.051Z,7.40
2023-05-15T04:37:48.944Z,7.45
2023-05-15T04:40:16.657Z,7.41
2023-05-15T04:42:43.819Z,7.46
2023-05-15T04:45:11.034Z,7.51
2023-05-15T04:47:38.144Z,7.59
2023-05-15T04:50:05.702Z,7.56
2023-05-15T04:52:33.019Z,7.59
2023-05-15T04:54:59.830Z,7.64
2023-05-15T04:57:26.882Z,7.72
2023-05-15T04:59:54.005Z,7.75
2023-05-15T05:02:25.610Z,7.81
2023-05-15T05:04:52.472Z,7.85
2023-05-15T05:07:19.523Z,7.92
2023-05-15T05:09:46.380Z,7.95
2023-05-15T05:12:13.304Z,8.03
2023-05-15T05:14:42.454Z,8.05
2023-05-15T05:17:09.552Z,8.11
2023-05-15T05:19:36.401Z,8.21
2023-05-15T05:22:05.871Z,8.26
2023-05-15T05:24:33.031Z,8.29
2023-05-15T05:27:00.462Z,8.32
2023-05-15T05:29:27.425Z,8.43
2023-05-15T05:31:54.278Z,8.28
2023-05-15T05:34:21.212Z,8.46
2023-05-15T05:36:48.615Z,8.55
2023-05-15T05:39:17.106Z,8.54
2023-05-15T05:41:44.484Z,8.55
2023-05-15T05:44:11.736Z,8.71
2023-05-15T05:46:38.620Z,8.74
2023-05-15T05:49:05.662Z,8.76
2023-05-15T05:51:32.569Z,8.82
2023-05-15T05:53:59.537Z,9.02
2023-05-15T05:56:26.773Z,9.07
2023-05-15T05:58:53.983Z,9.19
2023-05-15T06:01:21.342Z,9.23
2023-05-15T06:03:48.318Z,9.21
2023-05-15T06:06:15.297Z,9.41
2023-05-15T06:08:42.116Z,9.51
2023-05-15T06:11:08.938Z,9.62
2023-05-15T06:13:36.050Z,9.73
2023-05-15T06:16:02.890Z,9.82
2023-05-15T06:18:29.810Z,9.86
2023-05-15T06:20:59.011Z,10.03
2023-05-15T06:23:26.934Z,10.16
2023-05-15T06:25:53.779Z,10.23
2023-05-15T06:28:20.713Z,10.33
2023-05-15T06:30:47.562Z,10.52
2023-05-15T06:33:14.427Z,10.63
2023-05-15T06:35:41.513Z,10.73
2023-05-15T06:38:08.484Z,10.87
2023-05-15T06:40:35.546Z,10.95
2023-05-15T06:43:02.463Z,11.08
2023-05-15T06:45:29.414Z,11.12
2023-05-15T06:47:57.490Z,11.24
2023-05-15T06:50:26.079Z,11.22
2023-05-15T06:52:52.886Z,11.38
2023-05-15T06:55:19.713Z,11.47
2023-05-15T06:57:46.562Z,11.52
2023-05-15T07:00:14.504Z,11.62
2023-05-15T07:02:41.497Z,11.71
2023-05-15T07:05:10.788Z,11.83
2023-05-15T07:07:37.689Z,11.96
2023-05-15T07:10:05.145Z,11.97
2023-05-15T07:12:33.261Z,12.14
2023-05-15T07:15:00.237Z,12.24
2023-05-15T07:17:27.144Z,12.32
2023-05-15T07:19:54.011Z,12.47
2023-05-15T07:22:21.031Z,12.50
2023-05-15T07:24:47.963Z,12.53
2023-05-15T07:27:14.786Z,12.61
2023-05-15T07:29:41.585Z,12.65
2023-05-15T07:32:08.434Z,12.70
2023-05-15T07:34:35.249Z,12.74
2023-05-15T07:37:02.783Z,12.84
2023-05-15T07:39:29.650Z,12.90
2023-05-15T07:41:56.685Z,13.04
2023-05-15T07:44:23.542Z,13.13
2023-05-15T07:46:50.403Z,13.20
2023-05-15T07:49:17.249Z,13.20
2023-05-15T07:51:44.057Z,13.23
2023-05-15T07:54:11.081Z,13.31
2023-05-15T07:56:38.020Z,13.38
2023-05-15T07:59:04.950Z,13.46
2023-05-15T08:01:32.792Z,13.53
2023-05-15T08:03:59.990Z,13.68
2023-05-15T08:06:26.927Z,13.89
2023-05-15T08:08:53.807Z,13.95
2023-05-15T08:11:21.660Z,13.94
2023-05-15T08:13:48.589Z,14.02
2023-05-15T08:16:15.737Z,14.22
2023-05-15T08:18:44.137Z,14.18
2023-05-15T08:21:11.438Z,14.26
2023-05-15T08:23:38.246Z,14.35
2023-05-15T08:26:05.386Z,14.39
2023-05-15T08:28:33.495Z,14.49
2023-05-15T08:31:00.679Z,14.49
2023-05-15T08:33:27.526Z,14.67
2023-05-15T08:35:54.363Z,14.77
2023-05-15T08:38:22.719Z,14.86
2023-05-15T08:40:53.249Z,14.75
2023-05-15T08:43:22.944Z,14.85
2023-05-15T08:45:50.357Z,14.83
2023-05-15T08:48:21.335Z,14.79
2023-05-15T08:50:49.841Z,14.95
2023-05-15T08:53:16.922Z,15.01
2023-05-15T08:55:43.985Z,15.13
2023-05-15T08:58:11.092Z,15.10
2023-05-15T09:00:38.079Z,15.13
2023-05-15T09:03:05.590Z,15.14
2023-05-15T09:05:32.573Z,15.25
2023-05-15T09:08:03.400Z,15.36
2023-05-15T09:10:31.014Z,15.44
2023-05-15T09:12:58.795Z,15.56
2023-05-15T09:15:25.981Z,15.74
2023-05-15T09:18:01.985Z,15.97
2023-05-15T09:20:37.443Z,16.17
2023-05-15T09:23:06.495Z,16.39
2023-05-15T09:25:44.910Z,16.64
2023-05-15T09:28:30.615Z,16.81
2023-05-15T09:31:03.660Z,16.74
2023-05-15T09:33:33.043Z,16.95
2023-05-15T09:36:00.288Z,17.07
2023-05-15T09:38:27.152Z,17.20
2023-05-15T09:41:06.794Z,17.27
2023-05-15T09:43:41.302Z,17.31
2023-05-15T09:46:09.766Z,17.26
2023-05-15T09:48:36.739Z,17.29
2023-05-15T09:51:05.895Z,17.45
2023-05-15T09:53:32.771Z,17.43
2023-05-15T09:55:59.636Z,17.42
2023-05-15T09:58:26.448Z,17.15
2023-05-15T10:00:53.264Z,17.03
2023-05-15T10:03:21.077Z,16.86
2023-05-15T10:05:48.195Z,16.89
2023-05-15T10:08:16.046Z,16.87
2023-05-15T10:10:43.979Z,16.75
2023-05-15T10:13:11.710Z,16.76
2023-05-15T10:15:39.949Z,16.78
2023-05-15T10:18:08.381Z,16.80
2023-05-15T10:20:36.111Z,16.90
2023-05-15T10:23:06.640Z,16.87
2023-05-15T10:25:42.309Z,17.01
2023-05-15T10:28:11.947Z,17.19
2023-05-15T10:30:39.253Z,17.28
2023-05-15T10:33:08.364Z,17.16
2023-05-15T10:35:36.509Z,17.02
2023-05-15T10:38:07.220Z,16.91
2023-05-15T10:40:38.336Z,16.97
2023-05-15T10:43:06.439Z,17.10
2023-05-15T10:45:35.083Z,17.15
2023-05-15T10:48:03.668Z,17.14
2023-05-15T10:50:30.706Z,17.15
2023-05-15T10:52:57.530Z,17.16
2023-05-15T10:55:24.473Z,17.33
2023-05-15T10:57:51.969Z,17.20
2023-05-15T11:00:27.999Z,17.14
2023-05-15T11:02:58.820Z,17.06
2023-05-15T11:05:26.609Z,17.29
2023-05-15T11:08:15.419Z,17.45
2023-05-15T11:10:42.358Z,17.54
2023-05-15T11:13:09.310Z,17.60
2023-05-15T11:15:47.333Z,17.56
2023-05-15T11:18:15.726Z,17.48
2023-05-15T11:20:55.059Z,17.53
2023-05-15T11:23:23.206Z,17.47
2023-05-15T11:25:55.182Z,17.28
2023-05-15T11:28:24.244Z,16.90
2023-05-15T11:30:53.299Z,16.97
2023-05-15T11:33:21.279Z,16.82
2023-05-15T11:35:49.038Z,16.43
2023-05-15T11:38:25.088Z,16.14
2023-05-15T11:40:58.814Z,15.47
2023-05-15T11:43:36.603Z,14.80
2023-05-15T11:46:04.759Z,14.39
2023-05-15T11:48:36.348Z,13.82
2023-05-15T11:51:04.600Z,13.50
2023-05-15T11:53:33.194Z,13.28
2023-05-15T11:56:00.195Z,13.15
2023-05-15T11:58:27.192Z,13.11
2023-05-15T12:00:54.374Z,13.12
2023-05-15T12:03:36.483Z,13.04
2023-05-15T12:06:04.289Z,13.04
2023-05-15T12:08:36.437Z,12.94
2023-05-15T12:11:04.503Z,12.93
2023-05-15T12:13:33.373Z,12.94
2023-05-15T12:16:04.891Z,12.96
2023-05-15T12:18:33.228Z,12.98
2023-05-15T12:21:00.972Z,12.78
2023-05-15T12:23:28.836Z,12.81
2023-05-15T12:26:01.408Z,12.79
2023-05-15T12:28:30.478Z,12.79
2023-05-15T12:30:58.202Z,12.79
2023-05-15T12:33:25.343Z,12.82
2023-05-15T12:36:00.865Z,12.76
2023-05-15T12:38:28.270Z,12.87
2023-05-15T12:40:55.435Z,12.96
2023-05-15T12:43:25.358Z,13.10
2023-05-15T12:45:54.753Z,13.27
2023-05-15T12:48:22.405Z,13.40
2023-05-15T12:50:50.253Z,13.41
2023-05-15T12:53:17.829Z,13.55
2023-05-15T12:55:46.881Z,13.65
2023-05-15T12:58:18.870Z,13.78
2023-05-15T13:00:47.122Z,13.78
2023-05-15T13:03:14.967Z,13.84
2023-05-15T13:05:45.851Z,13.86
2023-05-15T13:08:18.374Z,13.96
2023-05-15T13:10:46.920Z,14.03
2023-05-15T13:13:14.316Z,14.29
2023-05-15T13:15:44.842Z,14.03
2023-05-15T13:18:20.526Z,13.92
2023-05-15T13:20:51.528Z,14.18
2023-05-15T13:23:21.080Z,14.55
2023-05-15T13:25:48.144Z,14.68
2023-05-15T13:28:15.421Z,15.11
2023-05-15T13:30:42.801Z,15.39
2023-05-15T13:33:12.569Z,15.47
2023-05-15T13:35:41.377Z,15.63
2023-05-15T13:38:11.105Z,15.26
2023-05-15T13:40:38.429Z,15.46
2023-05-15T13:43:08.843Z,15.62
2023-05-15T13:45:35.885Z,15.68
2023-05-15T13:48:03.143Z,15.81
2023-05-15T13:50:30.057Z,15.93
2023-05-15T13:52:56.895Z,16.10
2023-05-15T13:55:24.121Z,16.24
2023-05-15T13:57:51.693Z,16.33
2023-05-15T14:00:19.894Z,16.50
2023-05-15T14:02:46.837Z,16.65
2023-05-15T14:05:15.590Z,16.80
2023-05-15T14:07:42.842Z,16.92
2023-05-15T14:10:10.641Z,17.11
2023-05-15T14:12:38.247Z,17.39
2023-05-15T14:15:06.070Z,17.61
2023-05-15T14:17:33.032Z,17.90
2023-05-15T14:19:59.912Z,18.13
2023-05-15T14:22:26.772Z,18.19
2023-05-15T14:24:54.037Z,18.32
2023-05-15T14:27:21.079Z,18.39
2023-05-15T14:29:49.502Z,18.52
2023-05-15T14:32:17.131Z,18.53
2023-05-15T14:34:44.820Z,18.72
2023-05-15T14:37:11.857Z,18.73
2023-05-15T14:39:38.857Z,18.82
2023-05-15T14:42:06.496Z,18.33
2023-05-15T14:44:34.840Z,18.24
2023-05-15T14:47:13.030Z,18.24
2023-05-15T14:49:40.761Z,18.18
2023-05-15T14:52:12.439Z,18.01
2023-05-15T14:54:40.142Z,17.80
2023-05-15T14:57:07.952Z,17.64
2023-05-15T14:59:34.894Z,17.62
2023-05-15T15:02:02.131Z,17.51
2023-05-15T15:04:34.226Z,17.45
2023-05-15T15:07:04.814Z,17.38
2023-05-15T15:09:31.999Z,17.34
2023-05-15T15:11:58.924Z,17.21
2023-05-15T15:14:25.820Z,17.13
2023-05-15T15:16:52.714Z,17.09
2023-05-15T15:19:20.406Z,16.98
2023-05-15T15:21:47.675Z,16.89
2023-05-15T15:24:14.863Z,16.84
2023-05-15T15:26:41.683Z,16.82
2023-05-15T15:29:08.493Z,16.63
2023-05-15T15:31:35.394Z,16.61
2023-05-15T15:34:05.285Z,16.62
2023-05-15T15:36:32.493Z,16.53
2023-05-15T15:38:59.621Z,16.45
2023-05-15T15:41:26.503Z,16.43
2023-05-15T15:43:54.031Z,16.40
2023-05-15T15:46:21.075Z,16.32
2023-05-15T15:48:48.913Z,16.23
2023-05-15T15:51:16.452Z,16.20
2023-05-15T15:53:43.298Z,16.23
2023-05-15T15:56:10.137Z,16.21
2023-05-15T15:58:36.982Z,16.18
2023-05-15T16:01:03.989Z,16.13
2023-05-15T16:03:31.625Z,15.87
2023-05-15T16:06:00.049Z,15.83
2023-05-15T16:08:27.378Z,15.85
2023-05-15T16:10:55.064Z,15.81
2023-05-15T16:13:21.952Z,15.92
2023-05-15T16:15:48.798Z,15.91
2023-05-15T16:18:15.645Z,15.96
2023-05-15T16:20:42.538Z,15.93
2023-05-15T16:23:11.791Z,15.94
2023-05-15T16:25:38.673Z,15.87
2023-05-15T16:28:05.745Z,15.55
2023-05-15T16:30:47.365Z,15.40
2023-05-15T16:33:17.759Z,15.25
2023-05-15T16:35:45.209Z,15.09
2023-05-15T16:38:12.688Z,14.95
2023-05-15T16:40:39.658Z,14.83
2023-05-15T16:43:06.504Z,14.37
2023-05-15T16:45:33.480Z,14.30
2023-05-15T16:48:00.466Z,14.27
2023-05-15T16:50:27.707Z,14.16
2023-05-15T16:52:54.800Z,14.07
2023-05-15T16:55:21.719Z,14.03
2023-05-15T16:57:48.611Z,13.82
2023-05-15T17:00:16.893Z,13.91
2023-05-15T17:02:44.426Z,13.80
2023-05-15T17:05:12.051Z,13.75
2023-05-15T17:07:39.320Z,13.48
2023-05-15T17:10:08.212Z,13.56
2023-05-15T17:12:35.611Z,13.65
2023-05-15T17:15:03.676Z,13.53
2023-05-15T17:17:30.595Z,13.44
2023-05-15T17:19:58.930Z,13.46
2023-05-15T17:22:26.237Z,13.51
2023-05-15T17:24:53.141Z,13.53
2023-05-15T17:27:20.690Z,13.60
2023-05-15T17:29:48.011Z,13.59
2023-05-15T17:32:16.295Z,13.57
2023-05-15T17:34:43.492Z,13.53
2023-05-15T17:37:11.195Z,13.43
2023-05-15T17:39:38.137Z,13.43
2023-05-15T17:42:05.396Z,13.49
2023-05-15T17:44:32.262Z,13.54
2023-05-15T17:46:59.468Z,13.54
2023-05-15T17:49:26.537Z,13.50
2023-05-15T17:51:54.191Z,13.47
2023-05-15T17:54:21.108Z,13.48
2023-05-15T17:56:48.698Z,13.45
2023-05-15T17:59:15.793Z,13.33
2023-05-15T18:01:42.715Z,13.36
2023-05-15T18:04:09.768Z,13.33
2023-05-15T18:06:36.888Z,13.27
2023-05-15T18:09:05.312Z,13.27
2023-05-15T18:11:32.288Z,13.19
2023-05-15T18:13:59.690Z,13.22
2023-05-15T18:16:26.836Z,13.16
2023-05-15T18:18:53.909Z,13.15
2023-05-15T18:21:20.893Z,13.12
2023-05-15T18:23:47.698Z,13.10
2023-05-15T18:26:14.555Z,13.01
2023-05-15T18:28:41.425Z,13.04
2023-05-15T18:31:08.846Z,12.93
2023-05-15T18:33:35.823Z,12.85
2023-05-15T18:36:03.675Z,12.84
2023-05-15T18:38:31.537Z,12.76
2023-05-15T18:40:58.352Z,12.78
2023-05-15T18:43:25.168Z,12.75
2023-05-15T18:45:52.025Z,12.53
2023-05-15T18:48:18.853Z,12.46
2023-05-15T18:50:45.678Z,12.46
2023-05-15T18:53:12.494Z,12.49
2023-05-15T18:55:39.576Z,12.41
2023-05-15T18:58:06.660Z,12.39
2023-05-15T19:00:38.827Z,12.42
2023-05-15T19:03:08.298Z,12.37
2023-05-15T19:05:35.308Z,12.38
2023-05-15T19:08:02.331Z,12.41
2023-05-15T19:10:29.824Z,12.34
2023-05-15T19:12:59.338Z,12.32
2023-05-15T19:15:26.406Z,12.29
2023-05-15T19:17:53.396Z,12.24
2023-05-15T19:20:21.108Z,12.22
2023-05-15T19:22:48.021Z,12.21
2023-05-15T19:25:14.971Z,12.22
2023-05-15T19:27:41.822Z,12.23
2023-05-15T19:30:10.222Z,12.20
2023-05-15T19:32:37.905Z,12.06
2023-05-15T19:35:05.879Z,12.01
2023-05-15T19:37:32.791Z,11.94
2023-05-15T19:39:59.621Z,11.86
2023-05-15T19:42:26.679Z,11.78
2023-05-15T19:44:53.586Z,11.80
2023-05-15T19:47:20.797Z,11.79
2023-05-15T19:49:47.722Z,11.80
2023-05-15T19:52:15.974Z,11.74
2023-05-15T19:54:42.837Z,11.81
2023-05-15T19:57:09.701Z,11.81
2023-05-15T19:59:36.559Z,11.76
2023-05-15T20:02:03.571Z,11.71
2023-05-15T20:04:32.708Z,11.62
2023-05-15T20:06:59.588Z,11.54
2023-05-15T20:09:26.396Z,11.45
2023-05-15T20:11:53.263Z,11.33
2023-05-15T20:14:20.162Z,11.35
2023-05-15T20:16:47.064Z,11.38
2023-05-15T20:19:14.157Z,11.40
2023-05-15T20:21:41.144Z,11.46
2023-05-15T20:24:08.195Z,11.42
2023-05-15T20:26:37.712Z,11.40
2023-05-15T20:29:04.607Z,11.34
2023-05-15T20:31:31.525Z,11.30
2023-05-15T20:33:59.317Z,11.26
2023-05-15T20:36:26.347Z,11.15
2023-05-15T20:38:53.260Z,11.06
2023-05-15T20:41:22.891Z,10.98
2023-05-15T20:43:49.985Z,10.87
2023-05-15T20:46:17.266Z,10.86
2023-05-15T20:48:44.243Z,10.79
2023-05-15T20:51:11.186Z,10.74
2023-05-15T20:53:38.050Z,10.77
2023-05-15T20:56:05.045Z,10.72
2023-05-15T20:58:31.857Z,10.71
2023-05-15T21:01:01.132Z,10.73
2023-05-15T21:03:29.216Z,10.76
2023-05-15T21:05:57.310Z,10.73
2023-05-15T21:08:24.508Z,10.69
2023-05-15T21:10:53.248Z,10.62
2023-05-15T21:13:20.120Z,10.52
2023-05-15T21:15:47.148Z,10.40
2023-05-15T21:18:14.325Z,10.37
2023-05-15T21:20:41.939Z,10.37
2023-05-15T21:23:08.929Z,10.38
2023-05-15T21:25:36.020Z,10.27
2023-05-15T21:28:03.020Z,10.22
2023-05-15T21:30:30.175Z,10.19
2023-05-15T21:32:57.078Z,10.14
2023-05-15T21:35:25.288Z,10.14
2023-05-15T21:37:52.082Z,10.04
2023-05-15T21:40:18.985Z,9.96
2023-05-15T21:42:46.110Z,9.90
2023-05-15T21:45:13.184Z,9.80
2023-05-15T21:47:40.586Z,9.76
2023-05-15T21:50:08.014Z,9.71
2023-05-15T21:52:34.904Z,9.74
2023-05-15T21:55:01.863Z,9.83
2023-05-15T21:57:29.081Z,9.71
2023-05-15T21:59:55.923Z,9.62
2023-05-15T22:02:22.871Z,9.63
2023-05-15T22:04:49.828Z,9.61
2023-05-15T22:07:16.740Z,9.64
2023-05-15T22:09:44.647Z,9.60
2023-05-15T22:12:11.618Z,9.42
2023-05-15T22:14:46.928Z,9.48
2023-05-15T22:17:19.191Z,9.44
2023-05-15T22:19:46.526Z,9.41
2023-05-15T22:22:13.956Z,9.38
2023-05-15T22:24:40.922Z,9.23
2023-05-15T22:27:07.728Z,9.20
2023-05-15T22:29:34.611Z,9.14
2023-05-15T22:32:01.550Z,9.04
2023-05-15T22:34:29.982Z,9.07
2023-05-15T22:36:57.072Z,8.98
2023-05-15T22:39:23.942Z,8.92
2023-05-15T22:41:50.813Z,8.93
2023-05-15T22:44:17.651Z,8.90
2023-05-15T22:46:44.510Z,8.83
2023-05-15T22:49:19.332Z,8.76
2023-05-15T22:51:47.100Z,8.77
2023-05-15T22:54:13.990Z,8.70
2023-05-15T22:56:40.876Z,8.67
2023-05-15T22:59:07.730Z,8.66
2023-05-15T23:01:34.586Z,8.69
2023-05-15T23:04:01.512Z,8.59
2023-05-15T23:06:28.328Z,8.60
2023-05-15T23:08:55.131Z,8.59
2023-05-15T23:11:22.213Z,8.60
2023-05-15T23:13:49.057Z,8.44
2023-05-15T23:16:16.051Z,8.47
2023-05-15T23:18:43.253Z,8.41
2023-05-15T23:21:10.152Z,8.38
2023-05-15T23:23:36.992Z,8.38
2023-05-15T23:26:03.849Z,8.43
2023-05-15T23:28:30.692Z,8.29
2023-05-15T23:30:57.578Z,8.30
2023-05-15T23:33:24.550Z,8.30
2023-05-15T23:35:52.551Z,8.21
2023-05-15T23:38:19.413Z,8.22
2023-05-15T23:40:46.222Z,8.19
2023-05-15T23:43:13.089Z,8.12
2023-05-15T23:45:39.914Z,8.13
2023-05-15T23:48:06.835Z,8.27
2023-05-15T23:50:33.683Z,8.28
2023-05-15T23:53:00.551Z,8.21
2023-05-15T23:55:27.426Z,8.09
2023-05-15T23:57:54.295Z,8.13
